M/V Nikos N — V7AR5 — position and weather

sailwx.info

Track history (hours):
 
Tides and Currents Weather Stations Pressure Air Temp Water Temp Dewpoint Dewpoint Depression Visibility Wind Speed Wind Dir Waves Ship Positions

M/V Nikos N

Last reported at 2018-Jan-29 05:59 UTC. Time now 2018-Feb-18 03:38 UTC.
Position N 31°43' W 123°23'.
Warning: this ship's position is 19 days out of date.

Length 190 m; draft 11.9 m.

Type: Cargo ship. MMSI: 538007185.

Date/timePositionNaut miles runAvg speedWind from/ knotsBaromVisibWave heightAir tempDewpointWater temp
2018-Jan-29 05:59N 31°43' W 123°23'612.1
2018-Jan-29 05:30N 31°47' W 123°28'612.2
2018-Jan-29 05:00N 31°51' W 123°33'612.2
2018-Jan-29 04:30N 31°56' W 123°38'612.0
2018-Jan-29 04:00N 31°60' W 123°43'611.9
2018-Jan-29 03:30N 32°03' W 123°49'611.6
2018-Jan-29 03:00N 32°07' W 123°54'611.6
2018-Jan-29 02:30N 32°11' W 123°59'611.7
2018-Jan-29 01:59N 32°15' W 124°04'611.8
2018-Jan-29 01:30N 32°19' W 124°09'612.0
2018-Jan-29 01:00N 32°24' W 124°13'612.4
2018-Jan-29 00:30N 32°29' W 124°17'612.1
2018-Jan-29 00:00N 32°34' W 124°21'612.3
2018-Jan-28 23:30N 32°40' W 124°25'713.0
2018-Jan-28 23:00N 32°45' W 124°29'713.1
2018-Jan-28 22:30N 32°51' W 124°33'713.4
2018-Jan-28 22:00N 32°57' W 124°37'613.3
2018-Jan-28 21:30N 33°02' W 124°42'  
2018-Jan-24 19:09N 48°08' W 125°55'410.5
2018-Jan-24 18:47N 48°10' W 125°51'410.8
2018-Jan-24 18:27N 48°13' W 125°47'510.6
2018-Jan-24 17:59N 48°16' W 125°41'510.8
2018-Jan-24 17:29N 48°19' W 125°34'510.4
2018-Jan-24 17:00N 48°22' W 125°28'510.2
2018-Jan-24 16:30N 48°25' W 125°22'5 9.8
2018-Jan-24 15:59N 48°28' W 125°16'5 9.8
2018-Jan-24 15:30N 48°30' W 125°09'510.0
2018-Jan-24 15:00N 48°31' W 125°02'5 9.9
2018-Jan-24 14:30N 48°31' W 124°54'5 9.9
2018-Jan-24 14:00N 48°31' W 124°47'610.8
2018-Jan-24 13:29N 48°29' W 124°39'611.6
2018-Jan-24 13:00N 48°27' W 124°31'612.5
2018-Jan-24 12:30N 48°25' W 124°22'713.0
2018-Jan-24 12:00N 48°23' W 124°13'713.7
2018-Jan-24 11:30N 48°20' W 124°04'713.5
2018-Jan-24 10:58N 48°17' W 123°54'913.4
2018-Jan-24 10:19N 48°16' W 123°41'514.0
2018-Jan-24 09:59N 48°15' W 123°34'511.0
2018-Jan-24 09:30N 48°19' W 123°28'510.3
2018-Jan-24 09:00N 48°23' W 123°23'510.0
2018-Jan-24 08:30N 48°24' W 123°16'611.8
2018-Jan-24 08:00N 48°29' W 123°13'713.5
2018-Jan-24 07:31N 48°36' W 123°14'713.0
2018-Jan-24 07:00N 48°42' W 123°15'713.8
2018-Jan-24 06:30N 48°45' W 123°05'510.3
2018-Jan-24 06:00N 48°50' W 123°02'612.5
2018-Jan-24 05:30N 48°54' W 123°09'612.3
2018-Jan-24 05:00N 48°59' W 123°16'612.5
2018-Jan-24 04:30N 49°03' W 123°23'612.3
2018-Jan-24 04:00N 49°09' W 123°23'713.7
2018-Jan-24 03:30N 49°16' W 123°21'612.1
2018-Jan-24 03:00N 49°19' W 123°13'510.0
2018-Jan-24 02:30N 49°18' W 123°06'0 0.7
2018-Jan-24 01:58N 49°18' W 123°05'0 0.0
2018-Jan-24 01:28N 49°18' W 123°05'0 0.0
2018-Jan-24 00:58N 49°18' W 123°05'0 0.0
2018-Jan-24 00:28N 49°18' W 123°05'0 0.0
2018-Jan-23 23:58N 49°18' W 123°05'0 0.0
2018-Jan-23 23:28N 49°18' W 123°05'0 0.0
2018-Jan-23 22:58N 49°18' W 123°05'0 0.0
2018-Jan-23 22:28N 49°18' W 123°05'0 0.0
2018-Jan-23 21:58N 49°18' W 123°05'0 0.0
2018-Jan-23 21:28N 49°18' W 123°05'0 0.0
2018-Jan-23 20:58N 49°18' W 123°05'0 0.0
2018-Jan-23 20:28N 49°18' W 123°05'0 0.0
2018-Jan-23 19:55N 49°18' W 123°05'0 0.0
2018-Jan-23 19:28N 49°18' W 123°05'0 0.0
2018-Jan-23 18:58N 49°18' W 123°05'0 0.0
2018-Jan-23 18:28N 49°18' W 123°05'0 0.0
2018-Jan-23 17:58N 49°18' W 123°05'0 0.0
2018-Jan-23 17:28N 49°18' W 123°05'0 0.1
2018-Jan-23 16:58N 49°18' W 123°05'0 0.2
2018-Jan-23 16:28N 49°18' W 123°05'0 0.1
2018-Jan-23 15:58N 49°18' W 123°05'0 0.0
2018-Jan-23 15:28N 49°18' W 123°05'0 0.2
2018-Jan-23 14:58N 49°18' W 123°05'0 0.1
2018-Jan-23 14:28N 49°18' W 123°05'0 0.0
2018-Jan-23 13:58N 49°18' W 123°05'0 0.0
2018-Jan-23 13:28N 49°18' W 123°05'0 0.0
2018-Jan-23 12:58N 49°18' W 123°05'0 0.0
2018-Jan-23 12:28N 49°18' W 123°05'0 0.0
2018-Jan-23 11:58N 49°18' W 123°05'0 0.0
2018-Jan-23 11:28N 49°18' W 123°05'0 0.0
2018-Jan-23 10:58N 49°18' W 123°05'0 0.0
2018-Jan-23 10:28N 49°18' W 123°05'0 0.0
2018-Jan-23 09:58N 49°18' W 123°05'0 0.0
2018-Jan-23 09:28N 49°18' W 123°05'0 0.0
2018-Jan-23 08:58N 49°18' W 123°05'0 0.0
2018-Jan-23 08:28N 49°18' W 123°05'0 0.0
2018-Jan-23 07:58N 49°18' W 123°05'0 0.0
2018-Jan-23 07:28N 49°18' W 123°05'0 0.1
2018-Jan-23 06:58N 49°18' W 123°05'0 0.0
2018-Jan-23 06:28N 49°18' W 123°05'0 0.0
2018-Jan-23 05:58N 49°18' W 123°05'0 0.0
2018-Jan-23 05:28N 49°18' W 123°05'0 0.0
2018-Jan-23 04:58N 49°18' W 123°05'0 0.0
2018-Jan-23 04:28N 49°18' W 123°05'0 0.1
2018-Jan-23 03:58N 49°18' W 123°05'0 0.0
2018-Jan-23 03:28N 49°18' W 123°05'0 0.0
2018-Jan-23 02:55N 49°18' W 123°05'0 0.1
2018-Jan-23 02:28N 49°18' W 123°05'0 0.0
2018-Jan-23 02:00N 49°18' W 123°05'0 0.1
2018-Jan-23 01:30N 49°18' W 123°05'1 1.3
2018-Jan-23 01:00N 49°18' W 123°04'0 0.1
2018-Jan-23 00:24N 49°18' W 123°04'0 0.0
2018-Jan-23 00:00N 49°18' W 123°04'0 0.0
2018-Jan-22 23:30N 49°18' W 123°04'0 0.0
2018-Jan-22 23:00N 49°18' W 123°04'0 0.0
2018-Jan-22 22:30N 49°18' W 123°04'0 0.0
2018-Jan-22 22:00N 49°18' W 123°04'0 0.0
2018-Jan-22 21:30N 49°18' W 123°04'0 0.0
2018-Jan-22 21:00N 49°18' W 123°04'0 0.0
2018-Jan-22 20:30N 49°18' W 123°04'0 0.0
2018-Jan-22 20:00N 49°18' W 123°04'0 0.0
2018-Jan-22 19:30N 49°18' W 123°04'0 0.0
2018-Jan-22 19:00N 49°18' W 123°04'0 0.0
2018-Jan-22 18:30N 49°18' W 123°04'0 0.0
2018-Jan-22 18:00N 49°18' W 123°04'0 0.0
2018-Jan-22 17:30N 49°18' W 123°04'0 0.0
2018-Jan-22 17:00N 49°18' W 123°04'0 0.0
2018-Jan-22 16:30N 49°18' W 123°04'0 0.0
2018-Jan-22 16:00N 49°18' W 123°04'0 0.0
2018-Jan-22 15:30N 49°18' W 123°04'0 0.0
2018-Jan-22 15:00N 49°18' W 123°04'0 0.0
2018-Jan-22 14:30N 49°18' W 123°04'0 0.0
2018-Jan-22 14:00N 49°18' W 123°04'0 0.0
2018-Jan-22 13:30N 49°18' W 123°04'0 0.0
2018-Jan-22 13:00N 49°18' W 123°04'0 0.0
2018-Jan-22 12:30N 49°18' W 123°04'0 0.0
2018-Jan-22 12:00N 49°18' W 123°04'0 0.0
2018-Jan-22 11:30N 49°18' W 123°04'0 0.0
2018-Jan-22 11:00N 49°18' W 123°04'0 0.0
2018-Jan-22 10:30N 49°18' W 123°04'0 0.0
2018-Jan-22 10:00N 49°18' W 123°04'0 0.0
2018-Jan-22 09:30N 49°18' W 123°04'0 0.0
2018-Jan-22 09:00N 49°18' W 123°04'0 0.0
2018-Jan-22 08:30N 49°18' W 123°04'0 0.0
2018-Jan-22 08:00N 49°18' W 123°04'0 0.0
2018-Jan-22 07:30N 49°18' W 123°04'0 0.0
2018-Jan-22 07:00N 49°18' W 123°04'0 0.0
2018-Jan-22 06:30N 49°18' W 123°04'0 0.0
2018-Jan-22 06:00N 49°18' W 123°04'0 0.0
2018-Jan-22 05:30N 49°18' W 123°04'0 0.0
2018-Jan-22 05:00N 49°18' W 123°04'0 0.0
2018-Jan-22 04:30N 49°18' W 123°04'0 0.0
2018-Jan-22 04:00N 49°18' W 123°04'0 0.0
2018-Jan-22 03:30N 49°18' W 123°04'0 0.0
2018-Jan-22 03:00N 49°18' W 123°04'0 0.0
2018-Jan-22 02:30N 49°18' W 123°04'0 0.0
2018-Jan-22 02:00N 49°18' W 123°04'0 0.0
2018-Jan-22 01:30N 49°18' W 123°04'0 0.0
2018-Jan-22 01:00N 49°18' W 123°04'0 0.0
2018-Jan-22 00:30N 49°18' W 123°04'0 0.0
2018-Jan-22 00:00N 49°18' W 123°04'0 0.0
2018-Jan-21 23:30N 49°18' W 123°04'0 0.0
2018-Jan-21 23:00N 49°18' W 123°04'0 0.0
2018-Jan-21 22:30N 49°18' W 123°04'0 0.0
2018-Jan-21 22:00N 49°18' W 123°04'0 0.0
2018-Jan-21 21:30N 49°18' W 123°04'0 0.0
2018-Jan-21 21:00N 49°18' W 123°04'0 0.0
2018-Jan-21 20:30N 49°18' W 123°04'0 0.0
2018-Jan-21 20:00N 49°18' W 123°04'0 0.0
2018-Jan-21 19:30N 49°18' W 123°04'0 0.0
2018-Jan-21 19:00N 49°18' W 123°04'0 0.0
2018-Jan-21 18:30N 49°18' W 123°04'0 0.0
2018-Jan-21 18:00N 49°18' W 123°04'0 0.0
2018-Jan-21 17:30N 49°18' W 123°04'0 0.0
2018-Jan-21 17:00N 49°18' W 123°04'0 0.0
2018-Jan-21 16:30N 49°18' W 123°04'0 0.0
2018-Jan-21 16:00N 49°18' W 123°04'0 0.0
2018-Jan-21 15:30N 49°18' W 123°04'0 0.0
2018-Jan-21 15:00N 49°18' W 123°04'0 0.0
2018-Jan-21 14:30N 49°18' W 123°04'0 0.0
2018-Jan-21 14:00N 49°18' W 123°04'0 0.0
2018-Jan-21 13:30N 49°18' W 123°04'0 0.0
2018-Jan-21 13:00N 49°18' W 123°04'0 0.0
2018-Jan-21 12:30N 49°18' W 123°04'0 0.0
2018-Jan-21 12:00N 49°18' W 123°04'0 0.0
2018-Jan-21 11:30N 49°18' W 123°04'0 0.0
2018-Jan-21 11:00N 49°18' W 123°04'0 0.0
2018-Jan-21 10:30N 49°18' W 123°04'0 0.0
2018-Jan-21 10:00N 49°18' W 123°04'0 0.0
2018-Jan-21 09:30N 49°18' W 123°04'0 0.0
2018-Jan-21 08:57N 49°18' W 123°04'0 0.0
2018-Jan-21 08:30N 49°18' W 123°04'0 0.0
2018-Jan-21 08:00N 49°18' W 123°04'0 0.0
2018-Jan-21 07:30N 49°18' W 123°04'0 0.0
2018-Jan-21 07:00N 49°18' W 123°04'0 0.0
2018-Jan-21 06:30N 49°18' W 123°04'0 0.0
2018-Jan-21 06:00N 49°18' W 123°04'0 0.0
2018-Jan-21 05:30N 49°18' W 123°04'0 0.0
2018-Jan-21 05:00N 49°18' W 123°04'0 0.0
2018-Jan-21 04:30N 49°18' W 123°04'0 0.0
2018-Jan-21 04:00N 49°18' W 123°04'0 0.0
2018-Jan-21 03:30N 49°18' W 123°04'0 0.0
2018-Jan-21 03:00N 49°18' W 123°04'0 0.0
2018-Jan-21 02:30N 49°18' W 123°04'0 0.0
2018-Jan-21 02:00N 49°18' W 123°04'0 0.0
2018-Jan-21 01:30N 49°18' W 123°04'0 0.0
2018-Jan-21 01:00N 49°18' W 123°04'0 0.0
2018-Jan-21 00:30N 49°18' W 123°04'0 0.0
2018-Jan-21 00:00N 49°18' W 123°04'0 0.0
2018-Jan-20 23:30N 49°18' W 123°04'0 0.0
2018-Jan-20 23:00N 49°18' W 123°04'0 0.0
2018-Jan-20 22:30N 49°18' W 123°04'0 0.0
2018-Jan-20 22:00N 49°18' W 123°04'0 0.0
2018-Jan-20 21:30N 49°18' W 123°04'0 0.0
2018-Jan-20 21:00N 49°18' W 123°04'0 0.0
2018-Jan-20 20:30N 49°18' W 123°04'0 0.0
2018-Jan-20 20:00N 49°18' W 123°04'0 0.0
2018-Jan-20 19:30N 49°18' W 123°04'0 0.0
2018-Jan-20 19:00N 49°18' W 123°04'0 0.0
2018-Jan-20 18:30N 49°18' W 123°04'0 0.0
2018-Jan-20 18:00N 49°18' W 123°04'0 0.0
2018-Jan-20 17:30N 49°18' W 123°04'0 0.0
2018-Jan-20 17:00N 49°18' W 123°04'0 0.0
2018-Jan-20 16:30N 49°18' W 123°04'0 0.0
2018-Jan-20 16:00N 49°18' W 123°04'0 0.0
2018-Jan-20 15:30N 49°18' W 123°04'0 0.0
2018-Jan-20 15:00N 49°18' W 123°04'0 0.0
2018-Jan-20 14:30N 49°18' W 123°04'0 0.0
2018-Jan-20 14:00N 49°18' W 123°04'0 0.0
2018-Jan-20 13:30N 49°18' W 123°04'0 0.0
2018-Jan-20 13:00N 49°18' W 123°04'0 0.0
2018-Jan-20 12:30N 49°18' W 123°04'0 0.0
2018-Jan-20 12:00N 49°18' W 123°04'0 0.0
2018-Jan-20 11:30N 49°18' W 123°04'0 0.0
2018-Jan-20 11:00N 49°18' W 123°04'0 0.0
2018-Jan-20 10:30N 49°18' W 123°04'0 0.0
2018-Jan-20 10:00N 49°18' W 123°04'0 0.0
2018-Jan-20 09:30N 49°18' W 123°04'0 0.0
2018-Jan-20 09:00N 49°18' W 123°04'0 0.7
2018-Jan-20 08:30N 49°18' W 123°05'2 3.4
2018-Jan-20 08:00N 49°18' W 123°07'3 5.4
2018-Jan-20 07:30N 49°17' W 123°11'0 0.7
2018-Jan-20 07:00N 49°17' W 123°11'0 0.1
2018-Jan-20 06:30N 49°17' W 123°11'0 0.1
2018-Jan-20 06:00N 49°17' W 123°11'0 0.0
2018-Jan-20 05:30N 49°17' W 123°11'0 0.0
2018-Jan-20 05:00N 49°17' W 123°11'0 0.0
2018-Jan-20 04:30N 49°17' W 123°11'0 0.0
2018-Jan-20 04:00N 49°17' W 123°11'0 0.0
2018-Jan-20 03:30N 49°17' W 123°11'0 0.0
2018-Jan-20 03:00N 49°17' W 123°11'0 0.0
2018-Jan-20 02:30N 49°17' W 123°11'0 0.0
2018-Jan-20 02:00N 49°17' W 123°11'0 0.0
2018-Jan-20 01:30N 49°17' W 123°11'0 0.0
2018-Jan-20 01:00N 49°17' W 123°11'0 0.0
2018-Jan-20 00:30N 49°17' W 123°11'0 0.1
2018-Jan-20 00:00N 49°17' W 123°11'0 0.0
2018-Jan-19 23:30N 49°17' W 123°11'0 0.0
2018-Jan-19 23:00N 49°17' W 123°11'0 0.0
2018-Jan-19 22:30N 49°17' W 123°11'0 0.0
2018-Jan-19 22:00N 49°17' W 123°11'0 0.0
2018-Jan-19 21:30N 49°17' W 123°11'0 0.0
2018-Jan-19 21:00N 49°17' W 123°11'0 0.0
2018-Jan-19 20:30N 49°17' W 123°11'0 0.0
2018-Jan-19 20:00N 49°17' W 123°11'0 0.0
2018-Jan-19 19:30N 49°17' W 123°11'0 0.0
2018-Jan-19 19:00N 49°17' W 123°11'0 0.0
2018-Jan-19 18:27N 49°17' W 123°11'0 0.0
2018-Jan-19 18:00N 49°17' W 123°11'0 0.0
2018-Jan-19 17:30N 49°17' W 123°11'0 0.0
2018-Jan-19 17:00N 49°17' W 123°11'0 0.0
2018-Jan-19 16:30N 49°17' W 123°11'0 0.0
2018-Jan-19 16:00N 49°17' W 123°11'0 0.1
2018-Jan-19 15:24N 49°17' W 123°11'0 0.1
2018-Jan-19 15:00N 49°17' W 123°11'0 0.0
2018-Jan-19 14:30N 49°17' W 123°11'0 0.0
2018-Jan-19 14:00N 49°17' W 123°11'0 0.0
2018-Jan-19 13:30N 49°17' W 123°11'0 0.1
2018-Jan-19 13:00N 49°17' W 123°11'0 0.1
2018-Jan-19 12:30N 49°17' W 123°11'0 0.1
2018-Jan-19 12:00N 49°17' W 123°11'0 0.3
2018-Jan-19 11:30N 49°17' W 123°11'0 0.2
2018-Jan-19 11:00N 49°17' W 123°11'0 0.0
2018-Jan-19 10:30N 49°17' W 123°11'0 0.1
2018-Jan-19 09:57N 49°17' W 123°11'0 0.0
2018-Jan-19 09:27N 49°17' W 123°11'0 0.0
2018-Jan-19 09:00N 49°17' W 123°11'0 0.1
2018-Jan-19 08:27N 49°17' W 123°11'0 0.0
2018-Jan-19 08:00N 49°17' W 123°11'0 0.0
2018-Jan-19 07:30N 49°17' W 123°11'0 0.0
2018-Jan-19 07:00N 49°17' W 123°11'0 0.1
2018-Jan-19 06:30N 49°17' W 123°11'  
Track history (hours):
 
Tides and Currents Weather Stations Pressure Air Temp Water Temp Dewpoint Dewpoint Depression Visibility Wind Speed Wind Dir Waves Ship Positions

M/V Nikos N

Last reported at 2018-Jan-29 05:59 UTC. Time now 2018-Feb-18 03:38 UTC.
Position N 31°43' W 123°23'.
Warning: this ship's position is 19 days out of date.

Length 190 m; draft 11.9 m.

Type: Cargo ship. MMSI: 538007185.

Date/timePositionNaut miles runAvg speedWind from/ knotsBaromVisibWave heightAir tempDewpointWater temp
2018-Jan-29 05:59N 31°43' W 123°23'612.1
2018-Jan-29 05:30N 31°47' W 123°28'612.2
2018-Jan-29 05:00N 31°51' W 123°33'612.2
2018-Jan-29 04:30N 31°56' W 123°38'612.0
2018-Jan-29 04:00N 31°60' W 123°43'611.9
2018-Jan-29 03:30N 32°03' W 123°49'611.6
2018-Jan-29 03:00N 32°07' W 123°54'611.6
2018-Jan-29 02:30N 32°11' W 123°59'611.7
2018-Jan-29 01:59N 32°15' W 124°04'611.8
2018-Jan-29 01:30N 32°19' W 124°09'612.0
2018-Jan-29 01:00N 32°24' W 124°13'612.4
2018-Jan-29 00:30N 32°29' W 124°17'612.1
2018-Jan-29 00:00N 32°34' W 124°21'612.3
2018-Jan-28 23:30N 32°40' W 124°25'713.0
2018-Jan-28 23:00N 32°45' W 124°29'713.1
2018-Jan-28 22:30N 32°51' W 124°33'713.4
2018-Jan-28 22:00N 32°57' W 124°37'613.3
2018-Jan-28 21:30N 33°02' W 124°42'  
2018-Jan-24 19:09N 48°08' W 125°55'410.5
2018-Jan-24 18:47N 48°10' W 125°51'410.8
2018-Jan-24 18:27N 48°13' W 125°47'510.6
2018-Jan-24 17:59N 48°16' W 125°41'510.8
2018-Jan-24 17:29N 48°19' W 125°34'510.4
2018-Jan-24 17:00N 48°22' W 125°28'510.2
2018-Jan-24 16:30N 48°25' W 125°22'5 9.8
2018-Jan-24 15:59N 48°28' W 125°16'5 9.8
2018-Jan-24 15:30N 48°30' W 125°09'510.0
2018-Jan-24 15:00N 48°31' W 125°02'5 9.9
2018-Jan-24 14:30N 48°31' W 124°54'5 9.9
2018-Jan-24 14:00N 48°31' W 124°47'610.8
2018-Jan-24 13:29N 48°29' W 124°39'611.6
2018-Jan-24 13:00N 48°27' W 124°31'612.5
2018-Jan-24 12:30N 48°25' W 124°22'713.0
2018-Jan-24 12:00N 48°23' W 124°13'713.7
2018-Jan-24 11:30N 48°20' W 124°04'713.5
2018-Jan-24 10:58N 48°17' W 123°54'913.4
2018-Jan-24 10:19N 48°16' W 123°41'514.0
2018-Jan-24 09:59N 48°15' W 123°34'511.0
2018-Jan-24 09:30N 48°19' W 123°28'510.3
2018-Jan-24 09:00N 48°23' W 123°23'510.0
2018-Jan-24 08:30N 48°24' W 123°16'611.8
2018-Jan-24 08:00N 48°29' W 123°13'713.5
2018-Jan-24 07:31N 48°36' W 123°14'713.0
2018-Jan-24 07:00N 48°42' W 123°15'713.8
2018-Jan-24 06:30N 48°45' W 123°05'510.3
2018-Jan-24 06:00N 48°50' W 123°02'612.5
2018-Jan-24 05:30N 48°54' W 123°09'612.3
2018-Jan-24 05:00N 48°59' W 123°16'612.5
2018-Jan-24 04:30N 49°03' W 123°23'612.3
2018-Jan-24 04:00N 49°09' W 123°23'713.7
2018-Jan-24 03:30N 49°16' W 123°21'612.1
2018-Jan-24 03:00N 49°19' W 123°13'510.0
2018-Jan-24 02:30N 49°18' W 123°06'0 0.7
2018-Jan-24 01:58N 49°18' W 123°05'0 0.0
2018-Jan-24 01:28N 49°18' W 123°05'0 0.0
2018-Jan-24 00:58N 49°18' W 123°05'0 0.0
2018-Jan-24 00:28N 49°18' W 123°05'0 0.0
2018-Jan-23 23:58N 49°18' W 123°05'0 0.0
2018-Jan-23 23:28N 49°18' W 123°05'0 0.0
2018-Jan-23 22:58N 49°18' W 123°05'0 0.0
2018-Jan-23 22:28N 49°18' W 123°05'0 0.0
2018-Jan-23 21:58N 49°18' W 123°05'0 0.0
2018-Jan-23 21:28N 49°18' W 123°05'0 0.0
2018-Jan-23 20:58N 49°18' W 123°05'0 0.0
2018-Jan-23 20:28N 49°18' W 123°05'0 0.0
2018-Jan-23 19:55N 49°18' W 123°05'0 0.0
2018-Jan-23 19:28N 49°18' W 123°05'0 0.0
2018-Jan-23 18:58N 49°18' W 123°05'0 0.0
2018-Jan-23 18:28N 49°18' W 123°05'0 0.0
2018-Jan-23 17:58N 49°18' W 123°05'0 0.0
2018-Jan-23 17:28N 49°18' W 123°05'0 0.1
2018-Jan-23 16:58N 49°18' W 123°05'0 0.2
2018-Jan-23 16:28N 49°18' W 123°05'0 0.1
2018-Jan-23 15:58N 49°18' W 123°05'0 0.0
2018-Jan-23 15:28N 49°18' W 123°05'0 0.2
2018-Jan-23 14:58N 49°18' W 123°05'0 0.1
2018-Jan-23 14:28N 49°18' W 123°05'0 0.0
2018-Jan-23 13:58N 49°18' W 123°05'0 0.0
2018-Jan-23 13:28N 49°18' W 123°05'0 0.0
2018-Jan-23 12:58N 49°18' W 123°05'0 0.0
2018-Jan-23 12:28N 49°18' W 123°05'0 0.0
2018-Jan-23 11:58N 49°18' W 123°05'0 0.0
2018-Jan-23 11:28N 49°18' W 123°05'0 0.0
2018-Jan-23 10:58N 49°18' W 123°05'0 0.0
2018-Jan-23 10:28N 49°18' W 123°05'0 0.0
2018-Jan-23 09:58N 49°18' W 123°05'0 0.0
2018-Jan-23 09:28N 49°18' W 123°05'0 0.0
2018-Jan-23 08:58N 49°18' W 123°05'0 0.0
2018-Jan-23 08:28N 49°18' W 123°05'0 0.0
2018-Jan-23 07:58N 49°18' W 123°05'0 0.0
2018-Jan-23 07:28N 49°18' W 123°05'0 0.1
2018-Jan-23 06:58N 49°18' W 123°05'0 0.0
2018-Jan-23 06:28N 49°18' W 123°05'0 0.0
2018-Jan-23 05:58N 49°18' W 123°05'0 0.0
2018-Jan-23 05:28N 49°18' W 123°05'0 0.0
2018-Jan-23 04:58N 49°18' W 123°05'0 0.0
2018-Jan-23 04:28N 49°18' W 123°05'0 0.1
2018-Jan-23 03:58N 49°18' W 123°05'0 0.0
2018-Jan-23 03:28N 49°18' W 123°05'0 0.0
2018-Jan-23 02:55N 49°18' W 123°05'0 0.1
2018-Jan-23 02:28N 49°18' W 123°05'0 0.0
2018-Jan-23 02:00N 49°18' W 123°05'0 0.1
2018-Jan-23 01:30N 49°18' W 123°05'1 1.3
2018-Jan-23 01:00N 49°18' W 123°04'0 0.1
2018-Jan-23 00:24N 49°18' W 123°04'0 0.0
2018-Jan-23 00:00N 49°18' W 123°04'0 0.0
2018-Jan-22 23:30N 49°18' W 123°04'0 0.0
2018-Jan-22 23:00N 49°18' W 123°04'0 0.0
2018-Jan-22 22:30N 49°18' W 123°04'0 0.0
2018-Jan-22 22:00N 49°18' W 123°04'0 0.0
2018-Jan-22 21:30N 49°18' W 123°04'0 0.0
2018-Jan-22 21:00N 49°18' W 123°04'0 0.0
2018-Jan-22 20:30N 49°18' W 123°04'0 0.0
2018-Jan-22 20:00N 49°18' W 123°04'0 0.0
2018-Jan-22 19:30N 49°18' W 123°04'0 0.0
2018-Jan-22 19:00N 49°18' W 123°04'0 0.0
2018-Jan-22 18:30N 49°18' W 123°04'0 0.0
2018-Jan-22 18:00N 49°18' W 123°04'0 0.0
2018-Jan-22 17:30N 49°18' W 123°04'0 0.0
2018-Jan-22 17:00N 49°18' W 123°04'0 0.0
2018-Jan-22 16:30N 49°18' W 123°04'0 0.0
2018-Jan-22 16:00N 49°18' W 123°04'0 0.0
2018-Jan-22 15:30N 49°18' W 123°04'0 0.0
2018-Jan-22 15:00N 49°18' W 123°04'0 0.0
2018-Jan-22 14:30N 49°18' W 123°04'0 0.0
2018-Jan-22 14:00N 49°18' W 123°04'0 0.0
2018-Jan-22 13:30N 49°18' W 123°04'0 0.0
2018-Jan-22 13:00N 49°18' W 123°04'0 0.0
2018-Jan-22 12:30N 49°18' W 123°04'0 0.0
2018-Jan-22 12:00N 49°18' W 123°04'0 0.0
2018-Jan-22 11:30N 49°18' W 123°04'0 0.0
2018-Jan-22 11:00N 49°18' W 123°04'0 0.0
2018-Jan-22 10:30N 49°18' W 123°04'0 0.0
2018-Jan-22 10:00N 49°18' W 123°04'0 0.0
2018-Jan-22 09:30N 49°18' W 123°04'0 0.0
2018-Jan-22 09:00N 49°18' W 123°04'0 0.0
2018-Jan-22 08:30N 49°18' W 123°04'0 0.0
2018-Jan-22 08:00N 49°18' W 123°04'0 0.0
2018-Jan-22 07:30N 49°18' W 123°04'0 0.0
2018-Jan-22 07:00N 49°18' W 123°04'0 0.0
2018-Jan-22 06:30N 49°18' W 123°04'0 0.0
2018-Jan-22 06:00N 49°18' W 123°04'0 0.0
2018-Jan-22 05:30N 49°18' W 123°04'0 0.0
2018-Jan-22 05:00N 49°18' W 123°04'0 0.0
2018-Jan-22 04:30N 49°18' W 123°04'0 0.0
2018-Jan-22 04:00N 49°18' W 123°04'0 0.0
2018-Jan-22 03:30N 49°18' W 123°04'0 0.0
2018-Jan-22 03:00N 49°18' W 123°04'0 0.0
2018-Jan-22 02:30N 49°18' W 123°04'0 0.0
2018-Jan-22 02:00N 49°18' W 123°04'0 0.0
2018-Jan-22 01:30N 49°18' W 123°04'0 0.0
2018-Jan-22 01:00N 49°18' W 123°04'0 0.0
2018-Jan-22 00:30N 49°18' W 123°04'0 0.0
2018-Jan-22 00:00N 49°18' W 123°04'0 0.0
2018-Jan-21 23:30N 49°18' W 123°04'0 0.0
2018-Jan-21 23:00N 49°18' W 123°04'0 0.0
2018-Jan-21 22:30N 49°18' W 123°04'0 0.0
2018-Jan-21 22:00N 49°18' W 123°04'0 0.0
2018-Jan-21 21:30N 49°18' W 123°04'0 0.0
2018-Jan-21 21:00N 49°18' W 123°04'0 0.0
2018-Jan-21 20:30N 49°18' W 123°04'0 0.0
2018-Jan-21 20:00N 49°18' W 123°04'0 0.0
2018-Jan-21 19:30N 49°18' W 123°04'0 0.0
2018-Jan-21 19:00N 49°18' W 123°04'0 0.0
2018-Jan-21 18:30N 49°18' W 123°04'0 0.0
2018-Jan-21 18:00N 49°18' W 123°04'0 0.0
2018-Jan-21 17:30N 49°18' W 123°04'0 0.0
2018-Jan-21 17:00N 49°18' W 123°04'0 0.0
2018-Jan-21 16:30N 49°18' W 123°04'0 0.0
2018-Jan-21 16:00N 49°18' W 123°04'0 0.0
2018-Jan-21 15:30N 49°18' W 123°04'0 0.0
2018-Jan-21 15:00N 49°18' W 123°04'0 0.0
2018-Jan-21 14:30N 49°18' W 123°04'0 0.0
2018-Jan-21 14:00N 49°18' W 123°04'0 0.0
2018-Jan-21 13:30N 49°18' W 123°04'0 0.0
2018-Jan-21 13:00N 49°18' W 123°04'0 0.0
2018-Jan-21 12:30N 49°18' W 123°04'0 0.0
2018-Jan-21 12:00N 49°18' W 123°04'0 0.0
2018-Jan-21 11:30N 49°18' W 123°04'0 0.0
2018-Jan-21 11:00N 49°18' W 123°04'0 0.0
2018-Jan-21 10:30N 49°18' W 123°04'0 0.0
2018-Jan-21 10:00N 49°18' W 123°04'0 0.0
2018-Jan-21 09:30N 49°18' W 123°04'0 0.0
2018-Jan-21 08:57N 49°18' W 123°04'0 0.0
2018-Jan-21 08:30N 49°18' W 123°04'0 0.0
2018-Jan-21 08:00N 49°18' W 123°04'0 0.0
2018-Jan-21 07:30N 49°18' W 123°04'0 0.0
2018-Jan-21 07:00N 49°18' W 123°04'0 0.0
2018-Jan-21 06:30N 49°18' W 123°04'0 0.0
2018-Jan-21 06:00N 49°18' W 123°04'0 0.0
2018-Jan-21 05:30N 49°18' W 123°04'0 0.0
2018-Jan-21 05:00N 49°18' W 123°04'0 0.0
2018-Jan-21 04:30N 49°18' W 123°04'0 0.0
2018-Jan-21 04:00N 49°18' W 123°04'0 0.0
2018-Jan-21 03:30N 49°18' W 123°04'0 0.0
2018-Jan-21 03:00N 49°18' W 123°04'0 0.0
2018-Jan-21 02:30N 49°18' W 123°04'0 0.0
2018-Jan-21 02:00N 49°18' W 123°04'0 0.0
2018-Jan-21 01:30N 49°18' W 123°04'0 0.0
2018-Jan-21 01:00N 49°18' W 123°04'0 0.0
2018-Jan-21 00:30N 49°18' W 123°04'0 0.0
2018-Jan-21 00:00N 49°18' W 123°04'0 0.0
2018-Jan-20 23:30N 49°18' W 123°04'0 0.0
2018-Jan-20 23:00N 49°18' W 123°04'0 0.0
2018-Jan-20 22:30N 49°18' W 123°04'0 0.0
2018-Jan-20 22:00N 49°18' W 123°04'0 0.0
2018-Jan-20 21:30N 49°18' W 123°04'0 0.0
2018-Jan-20 21:00N 49°18' W 123°04'0 0.0
2018-Jan-20 20:30N 49°18' W 123°04'0 0.0
2018-Jan-20 20:00N 49°18' W 123°04'0 0.0
2018-Jan-20 19:30N 49°18' W 123°04'0 0.0
2018-Jan-20 19:00N 49°18' W 123°04'0 0.0
2018-Jan-20 18:30N 49°18' W 123°04'0 0.0
2018-Jan-20 18:00N 49°18' W 123°04'0 0.0
2018-Jan-20 17:30N 49°18' W 123°04'0 0.0
2018-Jan-20 17:00N 49°18' W 123°04'0 0.0
2018-Jan-20 16:30N 49°18' W 123°04'0 0.0
2018-Jan-20 16:00N 49°18' W 123°04'0 0.0
2018-Jan-20 15:30N 49°18' W 123°04'0 0.0
2018-Jan-20 15:00N 49°18' W 123°04'0 0.0
2018-Jan-20 14:30N 49°18' W 123°04'0 0.0
2018-Jan-20 14:00N 49°18' W 123°04'0 0.0
2018-Jan-20 13:30N 49°18' W 123°04'0 0.0
2018-Jan-20 13:00N 49°18' W 123°04'0 0.0
2018-Jan-20 12:30N 49°18' W 123°04'0 0.0
2018-Jan-20 12:00N 49°18' W 123°04'0 0.0
2018-Jan-20 11:30N 49°18' W 123°04'0 0.0
2018-Jan-20 11:00N 49°18' W 123°04'0 0.0
2018-Jan-20 10:30N 49°18' W 123°04'0 0.0
2018-Jan-20 10:00N 49°18' W 123°04'0 0.0
2018-Jan-20 09:30N 49°18' W 123°04'0 0.0
2018-Jan-20 09:00N 49°18' W 123°04'0 0.7
2018-Jan-20 08:30N 49°18' W 123°05'2 3.4
2018-Jan-20 08:00N 49°18' W 123°07'3 5.4
2018-Jan-20 07:30N 49°17' W 123°11'0 0.7
2018-Jan-20 07:00N 49°17' W 123°11'0 0.1
2018-Jan-20 06:30N 49°17' W 123°11'0 0.1
2018-Jan-20 06:00N 49°17' W 123°11'0 0.0
2018-Jan-20 05:30N 49°17' W 123°11'0 0.0
2018-Jan-20 05:00N 49°17' W 123°11'0 0.0
2018-Jan-20 04:30N 49°17' W 123°11'0 0.0
2018-Jan-20 04:00N 49°17' W 123°11'0 0.0
2018-Jan-20 03:30N 49°17' W 123°11'0 0.0
2018-Jan-20 03:00N 49°17' W 123°11'0 0.0
2018-Jan-20 02:30N 49°17' W 123°11'0 0.0
2018-Jan-20 02:00N 49°17' W 123°11'0 0.0
2018-Jan-20 01:30N 49°17' W 123°11'0 0.0
2018-Jan-20 01:00N 49°17' W 123°11'0 0.0
2018-Jan-20 00:30N 49°17' W 123°11'0 0.1
2018-Jan-20 00:00N 49°17' W 123°11'0 0.0
2018-Jan-19 23:30N 49°17' W 123°11'0 0.0
2018-Jan-19 23:00N 49°17' W 123°11'0 0.0
2018-Jan-19 22:30N 49°17' W 123°11'0 0.0
2018-Jan-19 22:00N 49°17' W 123°11'0 0.0
2018-Jan-19 21:30N 49°17' W 123°11'0 0.0
2018-Jan-19 21:00N 49°17' W 123°11'0 0.0
2018-Jan-19 20:30N 49°17' W 123°11'0 0.0
2018-Jan-19 20:00N 49°17' W 123°11'0 0.0
2018-Jan-19 19:30N 49°17' W 123°11'0 0.0
2018-Jan-19 19:00N 49°17' W 123°11'0 0.0
2018-Jan-19 18:27N 49°17' W 123°11'0 0.0
2018-Jan-19 18:00N 49°17' W 123°11'0 0.0
2018-Jan-19 17:30N 49°17' W 123°11'0 0.0
2018-Jan-19 17:00N 49°17' W 123°11'0 0.0
2018-Jan-19 16:30N 49°17' W 123°11'0 0.0
2018-Jan-19 16:00N 49°17' W 123°11'0 0.1
2018-Jan-19 15:24N 49°17' W 123°11'0 0.1
2018-Jan-19 15:00N 49°17' W 123°11'0 0.0
2018-Jan-19 14:30N 49°17' W 123°11'0 0.0
2018-Jan-19 14:00N 49°17' W 123°11'0 0.0
2018-Jan-19 13:30N 49°17' W 123°11'0 0.1
2018-Jan-19 13:00N 49°17' W 123°11'0 0.1
2018-Jan-19 12:30N 49°17' W 123°11'0 0.1
2018-Jan-19 12:00N 49°17' W 123°11'0 0.3
2018-Jan-19 11:30N 49°17' W 123°11'0 0.2
2018-Jan-19 11:00N 49°17' W 123°11'0 0.0
2018-Jan-19 10:30N 49°17' W 123°11'0 0.1
2018-Jan-19 09:57N 49°17' W 123°11'0 0.0
2018-Jan-19 09:27N 49°17' W 123°11'0 0.0
2018-Jan-19 09:00N 49°17' W 123°11'0 0.1
2018-Jan-19 08:27N 49°17' W 123°11'0 0.0
2018-Jan-19 08:00N 49°17' W 123°11'0 0.0
2018-Jan-19 07:30N 49°17' W 123°11'0 0.0
2018-Jan-19 07:00N 49°17' W 123°11'0 0.1
2018-Jan-19 06:30N 49°17' W 123°11'  

Dump ship's entire track history